createdAt,value
2019-01-18T00:00:40.742Z,2.30
2019-01-18T00:03:10.061Z,4.07
2019-01-18T00:05:39.308Z,3.00
2019-01-18T00:08:10.789Z,2.93
2019-01-18T00:10:39.980Z,6.47
2019-01-18T00:13:09.218Z,3.60
2019-01-18T00:15:38.549Z,5.43
2019-01-18T00:18:12.105Z,3.47
2019-01-18T00:20:41.377Z,4.40
2019-01-18T00:23:10.716Z,5.00
2019-01-18T00:25:39.994Z,3.63
2019-01-18T00:28:09.358Z,2.40
2019-01-18T00:30:38.531Z,2.13
2019-01-18T00:33:07.725Z,3.53
2019-01-18T00:35:36.883Z,1.87
2019-01-18T00:38:06.093Z,2.17
2019-01-18T00:40:35.463Z,2.97
2019-01-18T00:43:04.933Z,1.90
2019-01-18T00:45:34.129Z,2.77
2019-01-18T00:48:03.405Z,1.90
2019-01-18T00:50:32.835Z,4.20
2019-01-18T00:53:02.184Z,3.60
2019-01-18T00:55:31.302Z,3.17
2019-01-18T00:58:00.537Z,2.70
2019-01-18T01:00:30.026Z,2.20
2019-01-18T01:02:59.344Z,3.83
2019-01-18T01:05:28.775Z,1.97
2019-01-18T01:07:58.200Z,2.10
2019-01-18T01:10:27.603Z,2.20
2019-01-18T01:12:56.822Z,2.03
2019-01-18T01:15:26.237Z,4.43
2019-01-18T01:17:55.447Z,3.03
2019-01-18T01:20:24.650Z,3.87
2019-01-18T01:22:53.861Z,2.10
2019-01-18T01:25:23.221Z,4.23
2019-01-18T01:27:52.874Z,3.17
2019-01-18T01:30:24.291Z,1.93
2019-01-18T01:32:53.926Z,2.30
2019-01-18T01:35:22.999Z,3.90
2019-01-18T01:37:51.990Z,5.13
2019-01-18T01:40:25.825Z,2.73
2019-01-18T01:42:54.816Z,2.60
2019-01-18T01:45:24.033Z,2.33
2019-01-18T01:47:52.925Z,3.37
2019-01-18T01:50:24.004Z,3.80
2019-01-18T01:52:52.972Z,4.23
2019-01-18T01:55:22.253Z,2.83
2019-01-18T01:57:52.046Z,2.83
2019-01-18T02:00:23.741Z,3.33
2019-01-18T02:02:52.695Z,3.57
2019-01-18T02:05:21.637Z,4.20
2019-01-18T02:07:50.530Z,3.47
2019-01-18T02:10:19.806Z,3.97
2019-01-18T02:12:48.768Z,6.17
2019-01-18T02:15:20.044Z,5.27
2019-01-18T02:17:49.010Z,2.73
2019-01-18T02:20:19.874Z,4.00
2019-01-18T02:22:48.986Z,4.67
2019-01-18T02:25:17.953Z,6.13
2019-01-18T02:27:47.018Z,5.83
2019-01-18T02:30:19.249Z,5.83
2019-01-18T02:32:48.312Z,5.43
2019-01-18T02:35:17.597Z,4.27
2019-01-18T02:37:46.545Z,3.40
2019-01-18T02:40:15.886Z,4.70
2019-01-18T02:42:45.244Z,5.90
2019-01-18T02:45:16.382Z,5.60
2019-01-18T02:47:45.231Z,4.90
2019-01-18T02:50:14.379Z,4.63
2019-01-18T02:52:43.348Z,5.73
2019-01-18T02:55:13.390Z,5.10
2019-01-18T02:57:42.354Z,5.40
2019-01-18T03:00:14.414Z,5.00
2019-01-18T03:02:43.210Z,3.40
2019-01-18T03:05:14.456Z,7.10
2019-01-18T03:07:43.465Z,3.70
2019-01-18T03:10:15.822Z,3.60
2019-01-18T03:12:44.707Z,6.53
2019-01-18T03:15:13.578Z,5.80
2019-01-18T03:17:42.460Z,5.70
2019-01-18T03:20:12.470Z,4.00
2019-01-18T03:22:41.431Z,8.23
2019-01-18T03:25:13.150Z,4.60
2019-01-18T03:27:42.122Z,4.87
2019-01-18T03:30:19.049Z,3.83
2019-01-18T03:32:44.351Z,6.00
2019-01-18T03:35:14.699Z,4.07
2019-01-18T03:37:43.606Z,4.87
2019-01-18T03:40:14.116Z,6.83
2019-01-18T03:42:43.599Z,6.80
2019-01-18T03:45:14.350Z,5.67
2019-01-18T03:47:43.342Z,3.73
2019-01-18T03:50:15.518Z,4.47
2019-01-18T03:52:44.774Z,6.87
2019-01-18T03:55:13.714Z,4.77
2019-01-18T03:57:42.617Z,5.60
2019-01-18T04:00:14.653Z,8.70
2019-01-18T04:02:43.509Z,5.53
2019-01-18T04:05:12.928Z,4.73
2019-01-18T04:07:41.847Z,4.27
2019-01-18T04:10:13.418Z,5.20
2019-01-18T04:12:42.353Z,5.97
2019-01-18T04:15:13.176Z,3.50
2019-01-18T04:17:42.157Z,8.37
2019-01-18T04:20:12.929Z,8.37
2019-01-18T04:22:41.805Z,6.10
2019-01-18T04:25:13.790Z,7.00
2019-01-18T04:27:42.621Z,5.57
2019-01-18T04:30:14.551Z,4.43
2019-01-18T04:32:43.407Z,4.83
2019-01-18T04:35:12.906Z,5.43
2019-01-18T04:37:41.876Z,5.03
2019-01-18T04:40:20.129Z,4.47
2019-01-18T04:42:49.054Z,4.70
2019-01-18T04:45:18.129Z,4.63
2019-01-18T04:47:46.989Z,8.57
2019-01-18T04:50:18.557Z,6.20
2019-01-18T04:52:47.428Z,3.77
2019-01-18T04:55:16.478Z,4.43
2019-01-18T04:57:45.402Z,6.57
2019-01-18T05:00:19.857Z,6.90
2019-01-18T05:02:48.777Z,6.53
2019-01-18T05:05:17.669Z,8.23
2019-01-18T05:07:46.583Z,4.70
2019-01-18T05:10:16.760Z,5.67
2019-01-18T05:12:45.618Z,6.70
2019-01-18T05:15:25.899Z,6.70
2019-01-18T05:17:54.763Z,6.93
2019-01-18T05:20:23.569Z,7.60
2019-01-18T05:22:52.498Z,6.87
2019-01-18T05:25:21.305Z,7.33
2019-01-18T05:27:50.180Z,10.20
2019-01-18T05:30:21.367Z,13.93
2019-01-18T05:32:50.307Z,7.73
2019-01-18T05:35:19.266Z,6.00
2019-01-18T05:37:48.213Z,9.50
2019-01-18T05:40:18.249Z,8.80
2019-01-18T05:42:47.226Z,9.63
2019-01-18T05:45:17.868Z,10.10
2019-01-18T05:47:47.031Z,5.53
2019-01-18T05:50:18.193Z,11.40
2019-01-18T05:52:47.142Z,6.27
2019-01-18T05:55:15.996Z,8.37
2019-01-18T05:57:44.894Z,8.13
2019-01-18T06:00:18.698Z,8.47
2019-01-18T06:02:47.504Z,7.90
2019-01-18T06:05:16.929Z,8.60
2019-01-18T06:07:45.806Z,8.37
2019-01-18T06:10:14.663Z,8.53
2019-01-18T06:12:43.542Z,7.13
2019-01-18T06:15:12.471Z,8.97
2019-01-18T06:17:41.455Z,11.50
2019-01-18T06:20:10.647Z,7.73
2019-01-18T06:22:39.534Z,10.70
2019-01-18T06:25:08.852Z,8.00
2019-01-18T06:27:37.800Z,7.67
2019-01-18T06:30:11.060Z,9.53
2019-01-18T06:32:39.868Z,9.67
2019-01-18T06:35:08.806Z,10.00
2019-01-18T06:37:37.630Z,11.00
2019-01-18T06:40:08.674Z,9.03
2019-01-18T06:42:37.459Z,9.30
2019-01-18T06:45:07.594Z,8.87
2019-01-18T06:47:36.471Z,7.77
2019-01-18T06:50:07.803Z,12.37
2019-01-18T06:52:36.600Z,9.73
2019-01-18T06:55:06.004Z,10.83
2019-01-18T06:57:34.817Z,8.50
2019-01-18T07:00:04.500Z,7.00
2019-01-18T07:02:33.382Z,10.47
2019-01-18T07:05:02.165Z,7.27
2019-01-18T07:07:31.062Z,10.53
2019-01-18T07:09:59.851Z,9.07
2019-01-18T07:12:28.661Z,9.33
2019-01-18T07:14:57.451Z,11.93
2019-01-18T07:17:26.335Z,10.77
2019-01-18T07:19:55.162Z,8.47
2019-01-18T07:22:24.045Z,13.90
2019-01-18T07:24:52.919Z,7.93
2019-01-18T07:27:21.827Z,8.13
2019-01-18T07:29:50.615Z,11.10
2019-01-18T07:32:19.482Z,7.47
2019-01-18T07:34:48.290Z,7.83
2019-01-18T07:37:17.103Z,8.17
2019-01-18T07:39:45.900Z,8.67
2019-01-18T07:42:14.755Z,9.70
2019-01-18T07:44:43.565Z,7.10
2019-01-18T07:47:12.350Z,6.80
2019-01-18T07:49:41.154Z,9.10
2019-01-18T07:52:10.111Z,8.93
2019-01-18T07:54:39.009Z,13.77
2019-01-18T07:57:07.870Z,9.93
2019-01-18T07:59:36.822Z,11.97
2019-01-18T08:02:05.689Z,9.07
2019-01-18T08:04:34.486Z,12.20
2019-01-18T08:07:03.435Z,10.30
2019-01-18T08:09:32.250Z,9.70
2019-01-18T08:12:01.031Z,9.67
2019-01-18T08:14:29.897Z,10.50
2019-01-18T08:16:58.687Z,10.90
2019-01-18T08:19:27.494Z,15.97
2019-01-18T08:21:56.371Z,13.47
2019-01-18T08:24:25.178Z,9.30
2019-01-18T08:26:53.953Z,9.67
2019-01-18T08:29:22.883Z,8.80
2019-01-18T08:31:51.683Z,13.03
2019-01-18T08:34:20.513Z,13.00
2019-01-18T08:36:49.357Z,11.07
2019-01-18T08:39:18.323Z,11.90
2019-01-18T08:41:47.161Z,9.60
2019-01-18T08:44:15.996Z,11.07
2019-01-18T08:46:44.790Z,12.60
2019-01-18T08:49:13.652Z,11.63
2019-01-18T08:51:42.446Z,11.67
2019-01-18T08:54:11.236Z,13.10
2019-01-18T08:56:40.113Z,11.83
2019-01-18T08:59:08.966Z,15.73
2019-01-18T09:01:37.858Z,12.63
2019-01-18T09:04:06.740Z,12.53
2019-01-18T09:06:35.698Z,10.77
2019-01-18T09:09:07.831Z,15.43
2019-01-18T09:11:36.715Z,11.20
2019-01-18T09:14:05.508Z,11.47
2019-01-18T09:16:34.406Z,11.33
2019-01-18T09:19:03.265Z,10.00
2019-01-18T09:21:32.122Z,10.77
2019-01-18T09:24:00.935Z,11.60
2019-01-18T09:26:29.723Z,12.63
2019-01-18T09:28:58.602Z,11.37
2019-01-18T09:31:27.394Z,11.47
2019-01-18T09:33:56.320Z,10.90
2019-01-18T09:36:25.211Z,9.63
2019-01-18T09:38:54.106Z,9.57
2019-01-18T09:41:22.972Z,11.17
2019-01-18T09:43:51.770Z,11.80
2019-01-18T09:46:20.551Z,10.17
2019-01-18T09:48:49.499Z,12.87
2019-01-18T09:51:18.427Z,10.63
2019-01-18T09:53:47.242Z,9.40
2019-01-18T09:56:16.035Z,10.80
2019-01-18T09:58:44.816Z,11.37
2019-01-18T10:01:13.703Z,9.53
2019-01-18T10:03:42.502Z,8.30
2019-01-18T10:06:11.322Z,12.17
2019-01-18T10:08:40.284Z,12.40
2019-01-18T10:11:09.149Z,8.17
2019-01-18T10:13:38.019Z,8.33
2019-01-18T10:16:07.003Z,8.10
2019-01-18T10:18:35.871Z,9.50
2019-01-18T10:21:05.041Z,8.53
2019-01-18T10:23:33.915Z,7.40
2019-01-18T10:26:03.093Z,6.37
2019-01-18T10:28:31.941Z,8.33
2019-01-18T10:31:00.763Z,8.57
2019-01-18T10:33:29.654Z,8.60
2019-01-18T10:35:58.474Z,7.43
2019-01-18T10:38:27.307Z,8.67
2019-01-18T10:40:56.142Z,5.77
2019-01-18T10:43:24.926Z,6.73
2019-01-18T10:45:53.715Z,5.37
2019-01-18T10:48:22.514Z,7.47
2019-01-18T10:50:51.484Z,9.27
2019-01-18T10:53:20.271Z,7.13
2019-01-18T10:55:49.047Z,7.80
2019-01-18T10:58:17.935Z,6.27
2019-01-18T11:00:46.718Z,8.20
2019-01-18T11:03:15.527Z,5.93
2019-01-18T11:05:44.378Z,7.23
2019-01-18T11:08:17.420Z,5.30
2019-01-18T11:10:43.774Z,4.83
2019-01-18T11:13:12.654Z,7.23
2019-01-18T11:15:41.455Z,7.40
2019-01-18T11:18:10.343Z,7.40
2019-01-18T11:20:46.323Z,7.80
2019-01-18T11:23:15.126Z,7.57
2019-01-18T11:25:44.006Z,8.80
2019-01-18T11:28:12.891Z,5.00
2019-01-18T11:30:41.771Z,6.93
2019-01-18T11:33:10.734Z,6.60
2019-01-18T11:35:39.666Z,7.53
2019-01-18T11:38:08.635Z,6.67
2019-01-18T11:40:37.575Z,5.13
2019-01-18T11:43:06.550Z,5.60
2019-01-18T11:45:35.407Z,7.50
2019-01-18T11:48:04.578Z,5.77
2019-01-18T18:06:20.818Z,11.13
2019-01-18T18:09:11.940Z,9.23
2019-01-18T18:12:20.787Z,8.53
2019-01-18T18:15:10.285Z,9.03
2019-01-18T18:18:14.199Z,9.73
2019-01-18T18:21:24.484Z,11.47
2019-01-18T18:24:52.752Z,7.23
2019-01-18T18:28:00.269Z,7.57
2019-01-18T18:30:57.274Z,9.80
2019-01-18T18:33:57.120Z,10.30
2019-01-18T18:37:11.411Z,8.83
2019-01-18T18:40:25.217Z,9.47
2019-01-18T18:43:16.730Z,8.00
2019-01-18T18:46:26.194Z,10.63
2019-01-18T18:49:26.824Z,10.73
2019-01-18T18:52:19.299Z,11.10
2019-01-18T18:55:27.553Z,9.60
2019-01-18T18:58:38.518Z,10.27
2019-01-18T19:01:35.133Z,12.03
2019-01-18T19:04:57.765Z,15.50
2019-01-18T19:07:56.988Z,12.60
2019-01-18T19:11:05.246Z,12.70
2019-01-18T19:14:04.091Z,13.33
2019-01-18T19:17:04.650Z,10.93
2019-01-18T19:20:33.048Z,12.70
2019-01-18T19:23:24.337Z,10.73
2019-01-18T19:26:36.487Z,14.20
2019-01-18T19:29:18.946Z,15.77
2019-01-18T19:32:33.650Z,12.70
2019-01-18T19:35:43.686Z,13.77
2019-01-18T19:38:54.334Z,15.30
2019-01-18T19:42:20.053Z,13.63
2019-01-18T19:45:39.185Z,15.77
2019-01-18T19:48:27.836Z,13.57
2019-01-18T19:51:52.640Z,14.37
2019-01-18T19:54:49.011Z,14.70
2019-01-18T19:58:03.280Z,15.27
2019-01-18T20:01:03.015Z,13.40
2019-01-18T20:04:11.484Z,15.47
2019-01-18T20:07:21.858Z,13.33
2019-01-18T20:10:24.212Z,12.77
2019-01-18T20:13:36.492Z,14.67
2019-01-18T20:16:19.939Z,17.20
2019-01-18T20:19:13.951Z,15.93
2019-01-18T20:22:18.598Z,16.17
2019-01-18T20:25:37.503Z,12.80
2019-01-18T20:28:42.356Z,12.20
2019-01-18T20:31:39.003Z,15.07
2019-01-18T20:35:07.587Z,15.77
2019-01-18T20:37:49.273Z,14.10
2019-01-18T20:40:50.586Z,18.70
2019-01-18T20:43:48.581Z,14.60
2019-01-18T20:46:50.347Z,14.87
2019-01-18T20:49:50.677Z,15.50
2019-01-18T20:52:57.226Z,15.83
2019-01-18T20:56:02.947Z,14.97
2019-01-18T20:58:49.915Z,15.77
2019-01-18T21:01:46.216Z,15.60
2019-01-18T21:05:08.585Z,15.23
2019-01-18T21:08:18.830Z,17.23
2019-01-18T21:11:07.042Z,17.63
2019-01-18T21:14:35.087Z,16.57
2019-01-18T21:17:18.406Z,18.87
2019-01-18T21:20:07.931Z,20.63
2019-01-18T21:23:26.614Z,16.57
2019-01-18T21:26:35.563Z,19.10
2019-01-18T21:29:41.467Z,16.30
2019-01-18T21:32:53.500Z,16.63
2019-01-18T21:35:49.902Z,16.23
2019-01-18T21:39:00.091Z,17.60
2019-01-18T21:42:00.355Z,16.97
2019-01-18T21:45:03.440Z,17.13
2019-01-18T21:47:59.714Z,16.87
2019-01-18T21:51:17.871Z,16.30
2019-01-18T21:54:10.951Z,20.17
2019-01-18T21:57:16.147Z,17.60
2019-01-18T22:00:25.410Z,17.07
2019-01-18T22:03:28.560Z,17.57
2019-01-18T22:06:21.486Z,21.77
2019-01-18T22:09:23.851Z,15.67
2019-01-18T22:12:25.038Z,17.73
2019-01-18T22:15:39.614Z,17.97
2019-01-18T22:18:20.675Z,18.30
2019-01-18T22:21:06.918Z,23.03
2019-01-18T22:24:02.367Z,19.93
2019-01-18T22:27:06.227Z,20.37
2019-01-18T22:30:08.468Z,20.47
2019-01-18T22:33:15.492Z,16.10
2019-01-18T22:36:17.519Z,19.47
2019-01-18T22:39:28.199Z,20.90
2019-01-18T22:42:21.686Z,17.60
2019-01-18T22:45:33.582Z,17.60
2019-01-18T22:48:26.143Z,16.40
2019-01-18T22:51:43.336Z,17.17
2019-01-18T22:55:03.015Z,16.20
2019-01-18T22:57:52.234Z,16.57
2019-01-18T23:01:06.047Z,17.40
2019-01-18T23:04:06.229Z,17.37
2019-01-18T23:07:09.301Z,13.80
2019-01-18T23:10:14.032Z,17.60
2019-01-18T23:13:34.462Z,14.17
2019-01-18T23:16:25.525Z,15.60
2019-01-18T23:19:16.584Z,13.33
2019-01-18T23:22:05.203Z,11.97
2019-01-18T23:24:47.654Z,16.10
2019-01-18T23:28:07.466Z,15.33
2019-01-18T23:30:48.681Z,14.77
2019-01-18T23:33:44.921Z,15.97
2019-01-18T23:36:34.905Z,14.73
2019-01-18T23:39:42.215Z,16.17
2019-01-18T23:42:57.444Z,17.50
2019-01-18T23:45:50.840Z,14.50
2019-01-18T23:48:55.106Z,14.63
2019-01-18T23:51:40.125Z,16.33
2019-01-18T23:54:39.675Z,13.57
2019-01-18T23:57:48.977Z,16.23
